sensor_id;sensor_type;location;lat;lon;timestamp;P1;durP1;ratioP1;P2;durP2;ratioP2
54408;SDS011;40315;48.620;9.828;2023-02-13T00:01:46;39.23;;;17.50;;
54408;SDS011;40315;48.620;9.828;2023-02-13T00:04:13;38.30;;;18.60;;
54408;SDS011;40315;48.620;9.828;2023-02-13T00:06:41;43.53;;;19.07;;
54408;SDS011;40315;48.620;9.828;2023-02-13T00:09:08;38.70;;;18.33;;
54408;SDS011;40315;48.620;9.828;2023-02-13T00:11:35;40.87;;;19.37;;
54408;SDS011;40315;48.620;9.828;2023-02-13T00:14:03;42.33;;;19.37;;
54408;SDS011;40315;48.620;9.828;2023-02-13T00:16:33;37.60;;;17.97;;
54408;SDS011;40315;48.620;9.828;2023-02-13T00:19:00;36.60;;;17.73;;
54408;SDS011;40315;48.620;9.828;2023-02-13T00:21:27;41.53;;;18.53;;
54408;SDS011;40315;48.620;9.828;2023-02-13T00:23:54;38.67;;;18.05;;
54408;SDS011;40315;48.620;9.828;2023-02-13T00:26:23;37.90;;;18.08;;
54408;SDS011;40315;48.620;9.828;2023-02-13T00:28:50;37.10;;;17.77;;
54408;SDS011;40315;48.620;9.828;2023-02-13T00:31:19;39.00;;;18.07;;
54408;SDS011;40315;48.620;9.828;2023-02-13T00:33:47;37.43;;;18.47;;
54408;SDS011;40315;48.620;9.828;2023-02-13T00:36:17;34.17;;;17.60;;
54408;SDS011;40315;48.620;9.828;2023-02-13T00:38:46;37.10;;;18.17;;
54408;SDS011;40315;48.620;9.828;2023-02-13T00:41:14;37.10;;;18.33;;
54408;SDS011;40315;48.620;9.828;2023-02-13T00:43:42;33.07;;;17.67;;
54408;SDS011;40315;48.620;9.828;2023-02-13T00:46:09;30.20;;;16.10;;
54408;SDS011;40315;48.620;9.828;2023-02-13T00:48:37;34.97;;;18.23;;
54408;SDS011;40315;48.620;9.828;2023-02-13T00:51:07;35.50;;;17.92;;
54408;SDS011;40315;48.620;9.828;2023-02-13T00:53:35;31.73;;;16.98;;
54408;SDS011;40315;48.620;9.828;2023-02-13T00:56:03;35.70;;;16.27;;
54408;SDS011;40315;48.620;9.828;2023-02-13T00:58:31;32.90;;;16.97;;
54408;SDS011;40315;48.620;9.828;2023-02-13T01:00:58;34.90;;;16.97;;
54408;SDS011;40315;48.620;9.828;2023-02-13T01:03:28;32.53;;;17.27;;
54408;SDS011;40315;48.620;9.828;2023-02-13T01:05:56;29.00;;;16.20;;
54408;SDS011;40315;48.620;9.828;2023-02-13T01:08:26;33.00;;;16.53;;
54408;SDS011;40315;48.620;9.828;2023-02-13T01:10:53;34.27;;;16.83;;
54408;SDS011;40315;48.620;9.828;2023-02-13T01:13:20;33.83;;;16.67;;
54408;SDS011;40315;48.620;9.828;2023-02-13T01:15:48;34.17;;;16.47;;
54408;SDS011;40315;48.620;9.828;2023-02-13T01:18:16;31.00;;;16.10;;
54408;SDS011;40315;48.620;9.828;2023-02-13T01:20:45;29.67;;;15.93;;
54408;SDS011;40315;48.620;9.828;2023-02-13T01:23:25;26.03;;;14.47;;
54408;SDS011;40315;48.620;9.828;2023-02-13T01:25:54;28.83;;;14.00;;
54408;SDS011;40315;48.620;9.828;2023-02-13T01:28:21;27.88;;;14.63;;
54408;SDS011;40315;48.620;9.828;2023-02-13T01:30:51;29.47;;;14.37;;
54408;SDS011;40315;48.620;9.828;2023-02-13T01:33:22;25.83;;;14.37;;
54408;SDS011;40315;48.620;9.828;2023-02-13T01:35:49;23.90;;;13.30;;
54408;SDS011;40315;48.620;9.828;2023-02-13T01:38:16;27.53;;;14.17;;
54408;SDS011;40315;48.620;9.828;2023-02-13T01:40:46;27.67;;;14.33;;
54408;SDS011;40315;48.620;9.828;2023-02-13T01:43:16;27.47;;;14.40;;
54408;SDS011;40315;48.620;9.828;2023-02-13T01:49:08;25.63;;;13.53;;
54408;SDS011;40315;48.620;9.828;2023-02-13T01:51:38;22.20;;;13.03;;
54408;SDS011;40315;48.620;9.828;2023-02-13T01:54:07;28.43;;;14.47;;
54408;SDS011;40315;48.620;9.828;2023-02-13T01:56:39;23.97;;;12.67;;
54408;SDS011;40315;48.620;9.828;2023-02-13T01:59:10;24.60;;;12.47;;
54408;SDS011;40315;48.620;9.828;2023-02-13T02:01:42;24.03;;;12.80;;
54408;SDS011;40315;48.620;9.828;2023-02-13T02:04:12;26.13;;;13.57;;
54408;SDS011;40315;48.620;9.828;2023-02-13T02:06:43;25.40;;;12.63;;
54408;SDS011;40315;48.620;9.828;2023-02-13T02:09:22;23.80;;;13.00;;
54408;SDS011;40315;48.620;9.828;2023-02-13T02:11:55;23.93;;;13.10;;
54408;SDS011;40315;48.620;9.828;2023-02-13T02:14:26;22.27;;;12.33;;
54408;SDS011;40315;48.620;9.828;2023-02-13T02:16:56;25.47;;;13.17;;
54408;SDS011;40315;48.620;9.828;2023-02-13T02:19:25;23.70;;;11.97;;
54408;SDS011;40315;48.620;9.828;2023-02-13T02:22:09;24.83;;;13.13;;
54408;SDS011;40315;48.620;9.828;2023-02-13T02:28:03;23.93;;;12.60;;
54408;SDS011;40315;48.620;9.828;2023-02-13T02:33:49;25.93;;;13.13;;
54408;SDS011;40315;48.620;9.828;2023-02-13T02:36:35;24.27;;;12.53;;
54408;SDS011;40315;48.620;9.828;2023-02-13T02:39:21;23.10;;;12.37;;
54408;SDS011;40315;48.620;9.828;2023-02-13T02:41:57;23.40;;;11.97;;
54408;SDS011;40315;48.620;9.828;2023-02-13T02:44:31;25.63;;;13.53;;
54408;SDS011;40315;48.620;9.828;2023-02-13T02:47:07;27.03;;;13.77;;
54408;SDS011;40315;48.620;9.828;2023-02-13T02:50:00;27.03;;;13.73;;
54408;SDS011;40315;48.620;9.828;2023-02-13T02:52:45;26.20;;;13.47;;
54408;SDS011;40315;48.620;9.828;2023-02-13T02:55:28;28.90;;;13.90;;
54408;SDS011;40315;48.620;9.828;2023-02-13T02:58:04;26.33;;;13.57;;
54408;SDS011;40315;48.620;9.828;2023-02-13T03:00:58;23.67;;;12.53;;
54408;SDS011;40315;48.620;9.828;2023-02-13T03:03:44;24.17;;;13.07;;
54408;SDS011;40315;48.620;9.828;2023-02-13T03:06:33;23.97;;;12.17;;
54408;SDS011;40315;48.620;9.828;2023-02-13T03:09:05;24.67;;;12.47;;
54408;SDS011;40315;48.620;9.828;2023-02-13T03:11:53;23.10;;;11.87;;
54408;SDS011;40315;48.620;9.828;2023-02-13T03:14:39;26.23;;;12.80;;
54408;SDS011;40315;48.620;9.828;2023-02-13T03:17:08;26.43;;;12.47;;
54408;SDS011;40315;48.620;9.828;2023-02-13T03:19:57;25.03;;;12.40;;
54408;SDS011;40315;48.620;9.828;2023-02-13T03:22:57;26.97;;;12.30;;
54408;SDS011;40315;48.620;9.828;2023-02-13T03:25:34;25.37;;;12.57;;
54408;SDS011;40315;48.620;9.828;2023-02-13T03:28:10;24.73;;;12.40;;
54408;SDS011;40315;48.620;9.828;2023-02-13T03:31:00;27.07;;;12.73;;
54408;SDS011;40315;48.620;9.828;2023-02-13T03:33:47;25.53;;;12.47;;
54408;SDS011;40315;48.620;9.828;2023-02-13T03:36:27;25.90;;;12.30;;
54408;SDS011;40315;48.620;9.828;2023-02-13T03:39:19;23.53;;;11.97;;
54408;SDS011;40315;48.620;9.828;2023-02-13T03:41:49;24.87;;;12.60;;
54408;SDS011;40315;48.620;9.828;2023-02-13T03:44:23;25.83;;;12.93;;
54408;SDS011;40315;48.620;9.828;2023-02-13T03:46:54;23.40;;;12.63;;
54408;SDS011;40315;48.620;9.828;2023-02-13T03:49:25;23.73;;;12.37;;
54408;SDS011;40315;48.620;9.828;2023-02-13T03:52:15;23.70;;;11.97;;
54408;SDS011;40315;48.620;9.828;2023-02-13T03:54:46;23.70;;;12.17;;
54408;SDS011;40315;48.620;9.828;2023-02-13T03:57:36;23.67;;;11.90;;
54408;SDS011;40315;48.620;9.828;2023-02-13T04:00:23;27.97;;;12.83;;
54408;SDS011;40315;48.620;9.828;2023-02-13T04:02:55;25.67;;;13.70;;
54408;SDS011;40315;48.620;9.828;2023-02-13T04:05:27;25.60;;;12.53;;
54408;SDS011;40315;48.620;9.828;2023-02-13T04:07:57;27.17;;;12.07;;
54408;SDS011;40315;48.620;9.828;2023-02-13T04:10:26;25.50;;;12.67;;
54408;SDS011;40315;48.620;9.828;2023-02-13T04:12:59;25.87;;;13.00;;
54408;SDS011;40315;48.620;9.828;2023-02-13T04:15:33;27.07;;;13.20;;
54408;SDS011;40315;48.620;9.828;2023-02-13T04:18:07;23.83;;;11.17;;
54408;SDS011;40315;48.620;9.828;2023-02-13T04:20:38;28.30;;;13.03;;
54408;SDS011;40315;48.620;9.828;2023-02-13T04:23:06;28.50;;;13.20;;
54408;SDS011;40315;48.620;9.828;2023-02-13T04:25:36;24.57;;;13.30;;
54408;SDS011;40315;48.620;9.828;2023-02-13T04:28:05;27.80;;;12.83;;
54408;SDS011;40315;48.620;9.828;2023-02-13T04:30:32;26.80;;;13.77;;
54408;SDS011;40315;48.620;9.828;2023-02-13T04:32:59;26.70;;;13.47;;
54408;SDS011;40315;48.620;9.828;2023-02-13T04:35:27;24.30;;;12.40;;
54408;SDS011;40315;48.620;9.828;2023-02-13T04:37:54;25.57;;;12.07;;
54408;SDS011;40315;48.620;9.828;2023-02-13T04:40:21;26.47;;;14.00;;
54408;SDS011;40315;48.620;9.828;2023-02-13T04:42:52;27.83;;;14.07;;
54408;SDS011;40315;48.620;9.828;2023-02-13T04:45:19;24.60;;;12.70;;
54408;SDS011;40315;48.620;9.828;2023-02-13T04:47:48;24.60;;;13.37;;
54408;SDS011;40315;48.620;9.828;2023-02-13T04:50:18;23.43;;;12.90;;
54408;SDS011;40315;48.620;9.828;2023-02-13T04:52:46;23.53;;;12.47;;
54408;SDS011;40315;48.620;9.828;2023-02-13T04:55:13;23.13;;;12.37;;
54408;SDS011;40315;48.620;9.828;2023-02-13T04:57:40;21.80;;;12.80;;
54408;SDS011;40315;48.620;9.828;2023-02-13T05:00:09;23.80;;;12.47;;
54408;SDS011;40315;48.620;9.828;2023-02-13T05:02:37;23.10;;;12.77;;
54408;SDS011;40315;48.620;9.828;2023-02-13T05:05:05;25.60;;;13.07;;
54408;SDS011;40315;48.620;9.828;2023-02-13T05:07:35;26.80;;;13.13;;
54408;SDS011;40315;48.620;9.828;2023-02-13T05:10:02;22.87;;;12.87;;
54408;SDS011;40315;48.620;9.828;2023-02-13T05:12:29;23.13;;;13.03;;
54408;SDS011;40315;48.620;9.828;2023-02-13T05:14:56;25.73;;;12.00;;
54408;SDS011;40315;48.620;9.828;2023-02-13T05:17:24;26.53;;;12.63;;
54408;SDS011;40315;48.620;9.828;2023-02-13T05:19:52;25.10;;;13.43;;
54408;SDS011;40315;48.620;9.828;2023-02-13T05:22:19;25.67;;;13.30;;
54408;SDS011;40315;48.620;9.828;2023-02-13T05:25:04;26.40;;;12.50;;
54408;SDS011;40315;48.620;9.828;2023-02-13T05:27:31;22.33;;;11.80;;
54408;SDS011;40315;48.620;9.828;2023-02-13T05:30:00;22.00;;;12.67;;
54408;SDS011;40315;48.620;9.828;2023-02-13T05:32:27;25.37;;;12.40;;
54408;SDS011;40315;48.620;9.828;2023-02-13T05:34:55;22.47;;;11.80;;
54408;SDS011;40315;48.620;9.828;2023-02-13T05:37:24;22.73;;;12.73;;
54408;SDS011;40315;48.620;9.828;2023-02-13T05:39:51;21.03;;;11.73;;
54408;SDS011;40315;48.620;9.828;2023-02-13T05:42:18;23.73;;;12.17;;
54408;SDS011;40315;48.620;9.828;2023-02-13T05:44:45;24.67;;;11.93;;
54408;SDS011;40315;48.620;9.828;2023-02-13T05:47:12;20.97;;;11.23;;
54408;SDS011;40315;48.620;9.828;2023-02-13T05:49:40;20.57;;;11.70;;
54408;SDS011;40315;48.620;9.828;2023-02-13T05:52:07;24.00;;;11.53;;
54408;SDS011;40315;48.620;9.828;2023-02-13T05:54:34;24.60;;;11.43;;
54408;SDS011;40315;48.620;9.828;2023-02-13T05:57:02;20.50;;;11.10;;
54408;SDS011;40315;48.620;9.828;2023-02-13T05:59:31;20.23;;;10.70;;
54408;SDS011;40315;48.620;9.828;2023-02-13T06:02:01;23.47;;;11.23;;
54408;SDS011;40315;48.620;9.828;2023-02-13T06:04:30;24.63;;;12.00;;
54408;SDS011;40315;48.620;9.828;2023-02-13T06:06:59;25.43;;;11.57;;
54408;SDS011;40315;48.620;9.828;2023-02-13T06:09:26;23.73;;;11.20;;
54408;SDS011;40315;48.620;9.828;2023-02-13T06:11:53;24.30;;;12.03;;
54408;SDS011;40315;48.620;9.828;2023-02-13T06:14:20;24.27;;;11.93;;
54408;SDS011;40315;48.620;9.828;2023-02-13T06:16:47;23.83;;;12.50;;
54408;SDS011;40315;48.620;9.828;2023-02-13T06:19:14;25.97;;;11.87;;
54408;SDS011;40315;48.620;9.828;2023-02-13T06:21:41;23.83;;;11.33;;
54408;SDS011;40315;48.620;9.828;2023-02-13T06:24:09;25.83;;;11.77;;
54408;SDS011;40315;48.620;9.828;2023-02-13T06:26:36;24.40;;;11.40;;
54408;SDS011;40315;48.620;9.828;2023-02-13T06:29:03;27.80;;;12.40;;
54408;SDS011;40315;48.620;9.828;2023-02-13T06:31:30;25.40;;;11.93;;
54408;SDS011;40315;48.620;9.828;2023-02-13T06:33:57;24.50;;;11.80;;
54408;SDS011;40315;48.620;9.828;2023-02-13T06:36:24;27.93;;;12.20;;
54408;SDS011;40315;48.620;9.828;2023-02-13T06:38:53;24.40;;;12.37;;
54408;SDS011;40315;48.620;9.828;2023-02-13T06:41:22;25.37;;;13.27;;
54408;SDS011;40315;48.620;9.828;2023-02-13T06:43:49;29.03;;;13.77;;
54408;SDS011;40315;48.620;9.828;2023-02-13T06:46:16;29.03;;;13.83;;
54408;SDS011;40315;48.620;9.828;2023-02-13T06:48:43;33.43;;;14.83;;
54408;SDS011;40315;48.620;9.828;2023-02-13T06:51:10;30.20;;;13.83;;
54408;SDS011;40315;48.620;9.828;2023-02-13T06:53:37;28.80;;;14.80;;
54408;SDS011;40315;48.620;9.828;2023-02-13T06:56:04;28.23;;;14.23;;
54408;SDS011;40315;48.620;9.828;2023-02-13T06:58:33;31.80;;;14.00;;
54408;SDS011;40315;48.620;9.828;2023-02-13T07:01:00;26.33;;;12.93;;
54408;SDS011;40315;48.620;9.828;2023-02-13T07:03:27;31.50;;;13.70;;
54408;SDS011;40315;48.620;9.828;2023-02-13T07:05:54;32.90;;;15.30;;
54408;SDS011;40315;48.620;9.828;2023-02-13T07:08:24;28.73;;;13.77;;
54408;SDS011;40315;48.620;9.828;2023-02-13T07:10:51;30.97;;;14.07;;
54408;SDS011;40315;48.620;9.828;2023-02-13T07:13:18;34.40;;;15.33;;
54408;SDS011;40315;48.620;9.828;2023-02-13T07:15:46;33.97;;;14.83;;
54408;SDS011;40315;48.620;9.828;2023-02-13T07:18:13;33.03;;;15.17;;
54408;SDS011;40315;48.620;9.828;2023-02-13T07:20:40;36.40;;;16.03;;
54408;SDS011;40315;48.620;9.828;2023-02-13T07:23:09;34.83;;;15.70;;
54408;SDS011;40315;48.620;9.828;2023-02-13T07:25:36;35.57;;;14.87;;
54408;SDS011;40315;48.620;9.828;2023-02-13T07:28:05;36.73;;;15.30;;
54408;SDS011;40315;48.620;9.828;2023-02-13T07:30:33;39.80;;;16.10;;
54408;SDS011;40315;48.620;9.828;2023-02-13T07:33:02;36.43;;;15.13;;
54408;SDS011;40315;48.620;9.828;2023-02-13T07:35:30;36.97;;;14.07;;
54408;SDS011;40315;48.620;9.828;2023-02-13T07:38:00;34.27;;;14.37;;
54408;SDS011;40315;48.620;9.828;2023-02-13T07:40:27;36.27;;;14.50;;
54408;SDS011;40315;48.620;9.828;2023-02-13T07:42:54;34.67;;;15.90;;
54408;SDS011;40315;48.620;9.828;2023-02-13T07:45:23;36.13;;;14.90;;
54408;SDS011;40315;48.620;9.828;2023-02-13T07:47:50;25.80;;;12.23;;
54408;SDS011;40315;48.620;9.828;2023-02-13T07:50:21;31.30;;;13.53;;
54408;SDS011;40315;48.620;9.828;2023-02-13T07:52:51;31.03;;;13.73;;
54408;SDS011;40315;48.620;9.828;2023-02-13T07:55:19;30.67;;;13.47;;
54408;SDS011;40315;48.620;9.828;2023-02-13T07:57:46;30.43;;;13.70;;
54408;SDS011;40315;48.620;9.828;2023-02-13T08:00:17;31.20;;;13.50;;
54408;SDS011;40315;48.620;9.828;2023-02-13T08:02:44;25.23;;;12.90;;
54408;SDS011;40315;48.620;9.828;2023-02-13T08:05:12;22.57;;;11.63;;
54408;SDS011;40315;48.620;9.828;2023-02-13T08:07:41;27.77;;;12.07;;
54408;SDS011;40315;48.620;9.828;2023-02-13T08:10:10;21.37;;;10.40;;
54408;SDS011;40315;48.620;9.828;2023-02-13T08:12:55;22.37;;;10.90;;
54408;SDS011;40315;48.620;9.828;2023-02-13T08:15:22;23.47;;;10.67;;
54408;SDS011;40315;48.620;9.828;2023-02-13T08:17:50;22.50;;;11.63;;
54408;SDS011;40315;48.620;9.828;2023-02-13T08:20:17;22.37;;;11.23;;
54408;SDS011;40315;48.620;9.828;2023-02-13T08:22:46;21.33;;;11.43;;
54408;SDS011;40315;48.620;9.828;2023-02-13T08:25:13;21.87;;;11.20;;
54408;SDS011;40315;48.620;9.828;2023-02-13T08:27:40;25.37;;;11.47;;
54408;SDS011;40315;48.620;9.828;2023-02-13T08:30:07;19.70;;;10.20;;
54408;SDS011;40315;48.620;9.828;2023-02-13T08:32:35;22.57;;;10.50;;
54408;SDS011;40315;48.620;9.828;2023-02-13T08:35:02;19.57;;;10.13;;
54408;SDS011;40315;48.620;9.828;2023-02-13T08:37:29;17.70;;;9.47;;
54408;SDS011;40315;48.620;9.828;2023-02-13T08:39:58;20.60;;;10.70;;
54408;SDS011;40315;48.620;9.828;2023-02-13T08:42:25;22.53;;;11.57;;
54408;SDS011;40315;48.620;9.828;2023-02-13T08:44:54;23.33;;;11.73;;
54408;SDS011;40315;48.620;9.828;2023-02-13T08:47:23;20.27;;;10.40;;
54408;SDS011;40315;48.620;9.828;2023-02-13T08:49:50;20.80;;;10.33;;
54408;SDS011;40315;48.620;9.828;2023-02-13T08:52:17;19.77;;;10.63;;
54408;SDS011;40315;48.620;9.828;2023-02-13T08:54:44;21.00;;;11.40;;
54408;SDS011;40315;48.620;9.828;2023-02-13T08:57:13;21.17;;;11.30;;
54408;SDS011;40315;48.620;9.828;2023-02-13T08:59:40;22.87;;;12.20;;
54408;SDS011;40315;48.620;9.828;2023-02-13T09:02:08;21.73;;;11.90;;
54408;SDS011;40315;48.620;9.828;2023-02-13T09:04:36;30.77;;;17.00;;
54408;SDS011;40315;48.620;9.828;2023-02-13T09:07:03;31.37;;;14.80;;
54408;SDS011;40315;48.620;9.828;2023-02-13T09:09:30;44.40;;;23.13;;
54408;SDS011;40315;48.620;9.828;2023-02-13T09:11:57;33.33;;;17.00;;
54408;SDS011;40315;48.620;9.828;2023-02-13T09:14:26;29.73;;;16.47;;
54408;SDS011;40315;48.620;9.828;2023-02-13T09:16:55;22.80;;;12.03;;
54408;SDS011;40315;48.620;9.828;2023-02-13T09:19:22;22.93;;;11.77;;
54408;SDS011;40315;48.620;9.828;2023-02-13T09:21:50;20.17;;;10.70;;
54408;SDS011;40315;48.620;9.828;2023-02-13T09:24:19;22.20;;;11.03;;
54408;SDS011;40315;48.620;9.828;2023-02-13T09:26:46;23.00;;;12.67;;
54408;SDS011;40315;48.620;9.828;2023-02-13T09:29:14;23.73;;;11.50;;
54408;SDS011;40315;48.620;9.828;2023-02-13T09:31:42;24.73;;;12.53;;
54408;SDS011;40315;48.620;9.828;2023-02-13T09:34:09;22.73;;;11.17;;
54408;SDS011;40315;48.620;9.828;2023-02-13T09:36:38;21.67;;;11.23;;
54408;SDS011;40315;48.620;9.828;2023-02-13T09:39:05;25.73;;;13.17;;
54408;SDS011;40315;48.620;9.828;2023-02-13T09:41:33;24.43;;;12.37;;
54408;SDS011;40315;48.620;9.828;2023-02-13T09:44:05;20.77;;;10.60;;
54408;SDS011;40315;48.620;9.828;2023-02-13T09:46:58;22.97;;;11.30;;
54408;SDS011;40315;48.620;9.828;2023-02-13T09:49:29;21.43;;;10.17;;
54408;SDS011;40315;48.620;9.828;2023-02-13T09:52:03;24.00;;;11.57;;
54408;SDS011;40315;48.620;9.828;2023-02-13T09:54:30;19.13;;;10.53;;
54408;SDS011;40315;48.620;9.828;2023-02-13T09:56:57;17.23;;;10.03;;
54408;SDS011;40315;48.620;9.828;2023-02-13T09:59:35;18.33;;;9.77;;
54408;SDS011;40315;48.620;9.828;2023-02-13T10:05:36;17.77;;;9.23;;
54408;SDS011;40315;48.620;9.828;2023-02-13T10:08:17;18.33;;;9.93;;
54408;SDS011;40315;48.620;9.828;2023-02-13T10:10:51;17.27;;;9.40;;
54408;SDS011;40315;48.620;9.828;2023-02-13T10:13:27;18.93;;;9.73;;
54408;SDS011;40315;48.620;9.828;2023-02-13T10:16:06;15.17;;;8.47;;
54408;SDS011;40315;48.620;9.828;2023-02-13T10:18:40;17.60;;;9.70;;
54408;SDS011;40315;48.620;9.828;2023-02-13T10:21:12;18.60;;;10.13;;
54408;SDS011;40315;48.620;9.828;2023-02-13T10:23:40;18.80;;;9.97;;
54408;SDS011;40315;48.620;9.828;2023-02-13T10:26:11;18.67;;;9.87;;
54408;SDS011;40315;48.620;9.828;2023-02-13T10:28:45;18.53;;;9.13;;
54408;SDS011;40315;48.620;9.828;2023-02-13T10:31:38;18.50;;;9.83;;
54408;SDS011;40315;48.620;9.828;2023-02-13T10:34:09;19.37;;;10.30;;
54408;SDS011;40315;48.620;9.828;2023-02-13T10:36:39;18.83;;;10.57;;
54408;SDS011;40315;48.620;9.828;2023-02-13T10:39:13;18.93;;;9.67;;
54408;SDS011;40315;48.620;9.828;2023-02-13T10:41:49;18.37;;;10.83;;
54408;SDS011;40315;48.620;9.828;2023-02-13T10:44:25;19.80;;;10.03;;
54408;SDS011;40315;48.620;9.828;2023-02-13T10:47:03;20.00;;;10.53;;
54408;SDS011;40315;48.620;9.828;2023-02-13T10:49:44;19.80;;;10.63;;
54408;SDS011;40315;48.620;9.828;2023-02-13T10:52:31;20.97;;;11.50;;
54408;SDS011;40315;48.620;9.828;2023-02-13T10:55:13;20.37;;;10.97;;
54408;SDS011;40315;48.620;9.828;2023-02-13T10:58:06;21.37;;;11.80;;
54408;SDS011;40315;48.620;9.828;2023-02-13T11:00:39;21.13;;;12.10;;
54408;SDS011;40315;48.620;9.828;2023-02-13T11:03:16;17.10;;;9.73;;
54408;SDS011;40315;48.620;9.828;2023-02-13T11:05:46;18.50;;;9.77;;
54408;SDS011;40315;48.620;9.828;2023-02-13T11:08:16;15.97;;;9.73;;
54408;SDS011;40315;48.620;9.828;2023-02-13T11:10:46;17.47;;;9.10;;
54408;SDS011;40315;48.620;9.828;2023-02-13T11:13:14;18.87;;;10.30;;
54408;SDS011;40315;48.620;9.828;2023-02-13T11:15:54;16.77;;;9.17;;
54408;SDS011;40315;48.620;9.828;2023-02-13T11:18:27;19.63;;;10.73;;
54408;SDS011;40315;48.620;9.828;2023-02-13T11:21:04;18.57;;;10.33;;
54408;SDS011;40315;48.620;9.828;2023-02-13T11:23:34;20.50;;;11.57;;
54408;SDS011;40315;48.620;9.828;2023-02-13T11:26:05;20.20;;;10.90;;
54408;SDS011;40315;48.620;9.828;2023-02-13T11:28:35;19.93;;;10.40;;
54408;SDS011;40315;48.620;9.828;2023-02-13T11:31:11;19.87;;;10.33;;
54408;SDS011;40315;48.620;9.828;2023-02-13T11:33:42;20.07;;;11.27;;
54408;SDS011;40315;48.620;9.828;2023-02-13T11:36:13;19.23;;;10.57;;
54408;SDS011;40315;48.620;9.828;2023-02-13T11:38:41;19.10;;;10.17;;
54408;SDS011;40315;48.620;9.828;2023-02-13T11:41:09;20.23;;;10.33;;
54408;SDS011;40315;48.620;9.828;2023-02-13T11:43:42;19.13;;;10.30;;
54408;SDS011;40315;48.620;9.828;2023-02-13T11:46:13;17.10;;;9.60;;
54408;SDS011;40315;48.620;9.828;2023-02-13T11:48:54;18.77;;;10.00;;
54408;SDS011;40315;48.620;9.828;2023-02-13T11:51:38;16.73;;;9.30;;
54408;SDS011;40315;48.620;9.828;2023-02-13T11:54:19;20.90;;;10.20;;
54408;SDS011;40315;48.620;9.828;2023-02-13T11:56:51;17.60;;;9.97;;
54408;SDS011;40315;48.620;9.828;2023-02-13T11:59:21;18.77;;;10.50;;
54408;SDS011;40315;48.620;9.828;2023-02-13T12:02:00;19.23;;;9.80;;
54408;SDS011;40315;48.620;9.828;2023-02-13T12:04:28;18.53;;;10.13;;
54408;SDS011;40315;48.620;9.828;2023-02-13T12:07:01;23.87;;;12.17;;
54408;SDS011;40315;48.620;9.828;2023-02-13T12:09:30;21.87;;;11.10;;
54408;SDS011;40315;48.620;9.828;2023-02-13T12:11:59;22.60;;;11.77;;
54408;SDS011;40315;48.620;9.828;2023-02-13T12:14:29;19.97;;;10.87;;
54408;SDS011;40315;48.620;9.828;2023-02-13T12:16:59;19.10;;;10.40;;
54408;SDS011;40315;48.620;9.828;2023-02-13T12:19:33;20.67;;;10.17;;
54408;SDS011;40315;48.620;9.828;2023-02-13T12:22:16;17.30;;;9.33;;
54408;SDS011;40315;48.620;9.828;2023-02-13T12:24:57;21.83;;;10.60;;
54408;SDS011;40315;48.620;9.828;2023-02-13T12:27:43;20.73;;;10.87;;
54408;SDS011;40315;48.620;9.828;2023-02-13T12:30:37;18.40;;;9.90;;
54408;SDS011;40315;48.620;9.828;2023-02-13T12:33:32;22.07;;;11.50;;
54408;SDS011;40315;48.620;9.828;2023-02-13T12:36:34;29.47;;;14.50;;
54408;SDS011;40315;48.620;9.828;2023-02-13T12:39:14;22.73;;;11.73;;
54408;SDS011;40315;48.620;9.828;2023-02-13T12:41:48;21.73;;;11.67;;
54408;SDS011;40315;48.620;9.828;2023-02-13T12:44:37;20.77;;;11.53;;
54408;SDS011;40315;48.620;9.828;2023-02-13T12:47:25;24.27;;;11.90;;
54408;SDS011;40315;48.620;9.828;2023-02-13T12:50:04;24.90;;;12.70;;
54408;SDS011;40315;48.620;9.828;2023-02-13T12:52:50;25.30;;;12.83;;
54408;SDS011;40315;48.620;9.828;2023-02-13T12:55:44;20.63;;;11.10;;
54408;SDS011;40315;48.620;9.828;2023-02-13T12:58:29;19.93;;;11.17;;
54408;SDS011;40315;48.620;9.828;2023-02-13T13:01:15;21.60;;;10.67;;
54408;SDS011;40315;48.620;9.828;2023-02-13T13:03:51;19.67;;;10.23;;
54408;SDS011;40315;48.620;9.828;2023-02-13T13:06:34;22.80;;;11.77;;
54408;SDS011;40315;48.620;9.828;2023-02-13T13:12:15;22.10;;;11.77;;
54408;SDS011;40315;48.620;9.828;2023-02-13T13:14:55;21.37;;;11.00;;
54408;SDS011;40315;48.620;9.828;2023-02-13T13:17:33;20.23;;;10.40;;
54408;SDS011;40315;48.620;9.828;2023-02-13T13:23:24;21.27;;;11.37;;
54408;SDS011;40315;48.620;9.828;2023-02-13T13:25:59;20.67;;;10.77;;
54408;SDS011;40315;48.620;9.828;2023-02-13T13:28:37;27.73;;;14.10;;
54408;SDS011;40315;48.620;9.828;2023-02-13T13:31:06;20.60;;;10.87;;
54408;SDS011;40315;48.620;9.828;2023-02-13T13:33:35;46.73;;;19.87;;
54408;SDS011;40315;48.620;9.828;2023-02-13T13:36:10;48.00;;;20.40;;
54408;SDS011;40315;48.620;9.828;2023-02-13T13:38:44;19.85;;;11.30;;
54408;SDS011;40315;48.620;9.828;2023-02-13T13:41:18;20.97;;;10.43;;
54408;SDS011;40315;48.620;9.828;2023-02-13T13:44:14;33.27;;;18.53;;
54408;SDS011;40315;48.620;9.828;2023-02-13T13:46:54;35.67;;;20.17;;
54408;SDS011;40315;48.620;9.828;2023-02-13T13:49:26;34.30;;;23.70;;
54408;SDS011;40315;48.620;9.828;2023-02-13T13:52:10;31.80;;;18.77;;
54408;SDS011;40315;48.620;9.828;2023-02-13T13:54:48;20.83;;;12.88;;
54408;SDS011;40315;48.620;9.828;2023-02-13T13:57:18;22.52;;;13.93;;
54408;SDS011;40315;48.620;9.828;2023-02-13T13:59:57;20.97;;;10.77;;
54408;SDS011;40315;48.620;9.828;2023-02-13T14:02:41;17.75;;;10.27;;
54408;SDS011;40315;48.620;9.828;2023-02-13T14:05:23;20.17;;;10.13;;
54408;SDS011;40315;48.620;9.828;2023-02-13T14:07:53;17.85;;;10.05;;
54408;SDS011;40315;48.620;9.828;2023-02-13T14:13:28;20.33;;;10.43;;
54408;SDS011;40315;48.620;9.828;2023-02-13T14:15:59;18.75;;;10.32;;
54408;SDS011;40315;48.620;9.828;2023-02-13T14:18:26;19.37;;;10.47;;
54408;SDS011;40315;48.620;9.828;2023-02-13T14:20:55;20.57;;;11.23;;
54408;SDS011;40315;48.620;9.828;2023-02-13T14:23:29;22.70;;;11.53;;
54408;SDS011;40315;48.620;9.828;2023-02-13T14:28:55;19.97;;;10.43;;
54408;SDS011;40315;48.620;9.828;2023-02-13T14:31:27;19.20;;;9.97;;
54408;SDS011;40315;48.620;9.828;2023-02-13T14:33:57;21.30;;;10.90;;
54408;SDS011;40315;48.620;9.828;2023-02-13T14:36:27;18.47;;;10.57;;
54408;SDS011;40315;48.620;9.828;2023-02-13T14:38:58;18.50;;;9.90;;
54408;SDS011;40315;48.620;9.828;2023-02-13T14:44:23;17.57;;;9.50;;
54408;SDS011;40315;48.620;9.828;2023-02-13T14:47:00;18.60;;;10.20;;
54408;SDS011;40315;48.620;9.828;2023-02-13T14:49:32;18.38;;;9.55;;
54408;SDS011;40315;48.620;9.828;2023-02-13T14:52:01;20.33;;;11.27;;
54408;SDS011;40315;48.620;9.828;2023-02-13T14:54:32;20.20;;;10.85;;
54408;SDS011;40315;48.620;9.828;2023-02-13T14:57:06;28.50;;;15.10;;
54408;SDS011;40315;48.620;9.828;2023-02-13T14:59:42;27.33;;;13.32;;
54408;SDS011;40315;48.620;9.828;2023-02-13T15:02:16;48.15;;;19.55;;
54408;SDS011;40315;48.620;9.828;2023-02-13T15:04:47;51.78;;;22.08;;
54408;SDS011;40315;48.620;9.828;2023-02-13T15:07:20;22.27;;;12.55;;
54408;SDS011;40315;48.620;9.828;2023-02-13T15:09:50;21.27;;;11.73;;
54408;SDS011;40315;48.620;9.828;2023-02-13T15:12:25;24.00;;;11.77;;
54408;SDS011;40315;48.620;9.828;2023-02-13T15:14:54;24.10;;;11.80;;
54408;SDS011;40315;48.620;9.828;2023-02-13T15:17:24;25.25;;;11.38;;
54408;SDS011;40315;48.620;9.828;2023-02-13T15:20:03;24.00;;;12.40;;
54408;SDS011;40315;48.620;9.828;2023-02-13T15:22:35;25.60;;;12.97;;